Elkins-Randolph Co-Jennings Randolph Field
KEKN : now visible

Airfield :











YOU CAN JOIN US ON...

 
LOGIN :

Register | Disclaimer

   EN    FR    IT 

 









Legend :    VFR   Marginal VFR   IFR   Intensive IFR   Very Intensive IFR
Visi :
Ceiling :
>= 8 km
>= 3000ft
5 to 8 km
1000 to 3000 ft
1500m to 5 km
500 to 1000 ft
800 to 1500m
200 to 500 ft
< 800m
< 200 ft
Symbols :   Thunderstorms  Fog  Heavy snow  Heavy precipitations  Wind > 20 kt






- Airport Elevation : 1987 ft


KEKN - Elkins-Randolph Co-Jennings Randolph Field

CURRENT METAR :
  • 082351Z AUTO 18006KT 10SM TS BKN041 BKN049 OVC060 27/20 A2999 RMK AO2 LTG DSNT NE AND E AND W TSB38 SLP144 T02720200 10317 20272 53004

EXPIRED METARs :
  • 082259Z AUTO 01005KT 10SM VCTS CLR 31/19 A2998 RMK AO2 LTG DSNT SW-N T03060189

TAF KEKN
Valid from the 09 at 01:00 until the 10 at 00:00 UTC


090033Z 0901/0924 VRB04KT 1SM TSRA BKN015CB
FM090130 00000KT 4SM BR SKC
FM090300 00000KT 1SM BR SCT001
FM090500 00000KT 1/4SM FG VV001
FM091300 00000KT P6SM SKC
FM091600 VRB04KT P6SM SCT045
KZDC FIR / North America



MET'MAP, your aeronautical weather chart ! - Copyright ORBIFLY December 2007 - Disclaimer

ORBIFLY MET'MAP TEAM :

Programming & Development : Alexandra Zaïnal
Concept & original design : Baudouin d'Aumeries
Assistance for programming : Marc-Olivier Méhu
Technical & hardware support : Manuel Goepfert

Contact : metmap@orbifly.com




SOURCES & CREDITS :

   NOAA       Earth
Advisory